createdAt,value
2022-07-25T00:02:16.355Z,21.50
2022-07-25T00:07:19.820Z,21.50
2022-07-25T00:12:23.153Z,21.40
2022-07-25T00:17:26.053Z,21.40
2022-07-25T00:22:28.987Z,21.30
2022-07-25T00:27:31.949Z,21.30
2022-07-25T00:32:34.853Z,21.20
2022-07-25T00:37:37.735Z,21.10
2022-07-25T00:42:40.678Z,21.10
2022-07-25T00:47:43.517Z,21.10
2022-07-25T00:52:46.669Z,21.20
2022-07-25T00:57:50.410Z,21.10
2022-07-25T01:02:53.607Z,21.10
2022-07-25T01:07:57.635Z,21.10
2022-07-25T01:13:00.511Z,21.10
2022-07-25T01:18:03.702Z,21.00
2022-07-25T01:23:06.612Z,21.00
2022-07-25T01:28:09.683Z,20.80
2022-07-25T01:33:18.346Z,20.80
2022-07-25T01:38:21.175Z,20.70
2022-07-25T01:43:24.242Z,20.70
2022-07-25T01:48:27.296Z,20.70
2022-07-25T01:53:31.453Z,20.70
2022-07-25T01:58:35.021Z,20.70
2022-07-25T02:03:37.860Z,20.60
2022-07-25T02:08:40.690Z,20.70
2022-07-25T02:13:43.575Z,20.80
2022-07-25T02:18:46.410Z,20.70
2022-07-25T02:23:50.874Z,20.70
2022-07-25T02:28:53.892Z,20.70
2022-07-25T02:33:56.688Z,20.60
2022-07-25T02:38:59.838Z,20.60
2022-07-25T02:44:02.877Z,20.50
2022-07-25T02:49:05.851Z,20.30
2022-07-25T02:54:08.716Z,20.30
2022-07-25T02:59:12.316Z,20.20
2022-07-25T03:04:16.160Z,20.10
2022-07-25T03:09:20.023Z,20.00
2022-07-25T03:14:22.869Z,20.00
2022-07-25T03:19:25.796Z,19.90
2022-07-25T03:24:28.894Z,19.80
2022-07-25T03:29:31.991Z,19.80
2022-07-25T03:34:36.671Z,19.80
2022-07-25T03:39:39.631Z,19.70
2022-07-25T03:44:43.106Z,19.70
2022-07-25T03:49:45.917Z,19.80
2022-07-25T03:54:48.736Z,19.70
2022-07-25T03:59:51.833Z,19.70
2022-07-25T04:04:54.648Z,19.70
2022-07-25T04:09:57.455Z,19.70
2022-07-25T04:15:00.402Z,19.80
2022-07-25T04:20:05.572Z,19.90
2022-07-25T04:25:10.204Z,20.00
2022-07-25T04:30:23.953Z,20.10
2022-07-25T04:35:27.784Z,20.30
2022-07-25T04:40:30.787Z,20.40
2022-07-25T04:45:34.924Z,20.60
2022-07-25T04:50:38.057Z,20.80
2022-07-25T04:55:40.862Z,21.00
2022-07-25T05:00:45.052Z,21.30
2022-07-25T05:05:47.955Z,21.50
2022-07-25T05:10:50.845Z,21.70
2022-07-25T05:15:56.733Z,21.90
2022-07-25T05:20:59.636Z,22.10
2022-07-25T05:26:02.380Z,22.40
2022-07-25T05:31:05.630Z,22.60
2022-07-25T05:36:09.268Z,22.80
2022-07-25T05:41:12.170Z,23.10
2022-07-25T05:46:15.988Z,23.30
2022-07-25T05:51:19.005Z,23.50
2022-07-25T05:56:21.986Z,23.80
2022-07-25T06:01:25.036Z,24.00
2022-07-25T06:06:28.002Z,24.20
2022-07-25T06:11:31.729Z,24.40
2022-07-25T06:16:35.012Z,24.60
2022-07-25T06:21:37.921Z,24.90
2022-07-25T06:26:40.863Z,25.10
2022-07-25T06:31:47.069Z,25.30
2022-07-25T06:36:50.283Z,25.50
2022-07-25T06:41:53.130Z,25.70
2022-07-25T06:46:56.054Z,25.90
2022-07-25T06:51:59.067Z,26.00
2022-07-25T06:57:02.169Z,26.10
2022-07-25T07:02:05.731Z,26.30
2022-07-25T07:07:08.846Z,26.40
2022-07-25T07:12:11.956Z,26.60
2022-07-25T07:17:15.421Z,26.70
2022-07-25T07:22:18.550Z,26.90
2022-07-25T07:27:23.655Z,26.90
2022-07-25T07:32:26.436Z,26.90
2022-07-25T07:37:35.058Z,27.00
2022-07-25T07:42:42.793Z,27.10
2022-07-25T07:47:48.918Z,27.30
2022-07-25T07:52:53.150Z,27.30
2022-07-25T07:57:56.515Z,27.50
2022-07-25T08:03:00.491Z,27.60
2022-07-25T08:08:04.917Z,27.80
2022-07-25T08:13:18.988Z,27.90
2022-07-25T08:18:22.258Z,28.00
2022-07-25T08:23:28.576Z,28.20
2022-07-25T08:28:32.091Z,28.40
2022-07-25T08:33:34.979Z,28.60
2022-07-25T08:38:37.911Z,28.70
2022-07-25T08:43:41.806Z,28.90
2022-07-25T08:48:45.611Z,29.10
2022-07-25T08:53:50.362Z,29.10
2022-07-25T08:58:56.420Z,29.30
2022-07-25T09:04:00.070Z,29.40
2022-07-25T09:09:08.367Z,29.50
2022-07-25T09:14:15.275Z,29.70
2022-07-25T09:19:21.354Z,29.90
2022-07-25T09:24:24.318Z,30.00
2022-07-25T09:29:33.500Z,30.30
2022-07-25T09:34:43.501Z,30.50
2022-07-25T09:39:51.684Z,30.60
2022-07-25T09:45:14.958Z,30.70
2022-07-25T09:50:19.127Z,30.80
2022-07-25T09:55:22.961Z,31.00
2022-07-25T10:00:28.952Z,31.10
2022-07-25T10:05:56.851Z,31.20
2022-07-25T10:10:59.844Z,31.30
2022-07-25T10:16:03.254Z,31.50
2022-07-25T10:21:25.670Z,31.70
2022-07-25T10:26:31.384Z,31.80
2022-07-25T10:31:39.737Z,31.90
2022-07-25T10:36:54.428Z,32.00
2022-07-25T10:42:02.471Z,31.90
2022-07-25T10:47:06.674Z,31.90
2022-07-25T10:52:20.324Z,32.10
2022-07-25T10:57:27.160Z,32.20
2022-07-25T11:02:35.829Z,32.30
2022-07-25T11:08:11.130Z,32.40
2022-07-25T11:13:15.769Z,32.60
2022-07-25T11:18:18.751Z,32.60
2022-07-25T11:23:24.782Z,32.50
2022-07-25T11:28:42.435Z,32.60
2022-07-25T11:33:49.307Z,33.00
2022-07-25T11:38:52.226Z,33.30
2022-07-25T11:43:57.373Z,33.60
2022-07-25T11:49:06.316Z,33.90
2022-07-25T11:54:10.966Z,34.10
2022-07-25T11:59:14.487Z,34.40
2022-07-25T12:04:21.040Z,34.60
2022-07-25T12:09:23.968Z,34.80
2022-07-25T12:14:26.770Z,35.00
2022-07-25T12:19:29.695Z,35.20
2022-07-25T12:24:32.655Z,35.30
2022-07-25T12:29:35.613Z,35.30
2022-07-25T12:34:38.598Z,35.50
2022-07-25T12:39:41.886Z,35.70
2022-07-25T12:44:44.654Z,35.90
2022-07-25T12:49:47.502Z,36.10
2022-07-25T12:54:50.561Z,36.40
2022-07-25T12:59:53.511Z,36.80
2022-07-25T13:04:56.468Z,37.00
2022-07-25T13:10:00.851Z,37.00
2022-07-25T13:15:05.252Z,37.20
2022-07-25T13:20:10.128Z,37.30
2022-07-25T13:25:13.015Z,37.30
2022-07-25T13:30:16.263Z,37.20
2022-07-25T13:35:20.751Z,37.20
2022-07-25T13:40:24.224Z,37.10
2022-07-25T13:45:27.232Z,37.10
2022-07-25T13:50:30.533Z,37.10
2022-07-25T13:55:33.497Z,37.00
2022-07-25T14:00:36.414Z,36.90
2022-07-25T14:05:39.799Z,36.90
2022-07-25T14:10:42.691Z,37.00
2022-07-25T14:15:45.515Z,37.10
2022-07-25T14:20:49.703Z,37.00
2022-07-25T14:25:52.654Z,37.00
2022-07-25T14:30:55.615Z,37.10
2022-07-25T14:35:59.499Z,37.00
2022-07-25T14:41:02.583Z,36.90
2022-07-25T14:46:05.932Z,36.70
2022-07-25T14:51:08.812Z,36.60
2022-07-25T14:56:12.797Z,36.60
2022-07-25T15:01:18.863Z,36.60
2022-07-25T15:06:27.232Z,36.70
2022-07-25T15:11:32.554Z,36.80
2022-07-25T15:16:35.573Z,37.00
2022-07-25T15:21:39.014Z,37.20
2022-07-25T15:26:42.234Z,37.40
2022-07-25T15:31:45.131Z,37.60
2022-07-25T15:36:48.183Z,37.50
2022-07-25T15:41:51.079Z,37.40
2022-07-25T15:46:53.973Z,37.40
2022-07-25T15:51:57.255Z,37.50
2022-07-25T15:57:00.456Z,37.60
2022-07-25T16:02:08.466Z,37.60
2022-07-25T16:07:11.414Z,37.60
2022-07-25T16:12:14.445Z,37.60
2022-07-25T16:17:17.386Z,37.50
2022-07-25T16:22:20.831Z,37.40
2022-07-25T16:27:23.717Z,37.40
2022-07-25T16:32:27.963Z,37.20
2022-07-25T16:37:30.763Z,37.00
2022-07-25T16:42:33.696Z,36.90
2022-07-25T16:47:37.145Z,36.90
2022-07-25T16:52:40.137Z,37.00
2022-07-25T16:57:43.186Z,36.90
2022-07-25T17:02:46.794Z,36.70
2022-07-25T17:07:55.731Z,36.30
2022-07-25T17:13:02.418Z,35.90
2022-07-25T17:18:05.470Z,35.50
2022-07-25T17:23:08.510Z,35.00
2022-07-25T17:28:11.391Z,34.60
2022-07-25T17:33:14.621Z,34.30
2022-07-25T17:38:20.051Z,34.00
2022-07-25T17:43:25.823Z,33.70
2022-07-25T17:48:28.819Z,33.40
2022-07-25T17:53:32.323Z,33.20
2022-07-25T17:58:35.481Z,32.90
2022-07-25T18:03:38.608Z,32.60
2022-07-25T18:08:41.857Z,32.30
2022-07-25T18:13:44.677Z,32.00
2022-07-25T18:18:47.576Z,31.70
2022-07-25T18:23:51.081Z,31.30
2022-07-25T18:28:54.349Z,30.90
2022-07-25T18:33:57.295Z,30.70
2022-07-25T18:39:00.471Z,30.40
2022-07-25T18:44:04.010Z,30.10
2022-07-25T18:49:07.159Z,29.90
2022-07-25T18:54:10.674Z,29.70
2022-07-25T18:59:13.789Z,29.40
2022-07-25T19:04:18.961Z,29.00
2022-07-25T19:09:22.194Z,28.70
2022-07-25T19:14:27.384Z,28.40
2022-07-25T19:19:30.798Z,28.20
2022-07-25T19:24:33.739Z,28.00
2022-07-25T19:29:38.187Z,27.70
2022-07-25T19:34:41.020Z,27.50
2022-07-25T19:39:43.957Z,27.30
2022-07-25T19:44:47.148Z,27.10
2022-07-25T19:49:50.242Z,26.90
2022-07-25T19:54:54.559Z,26.70
2022-07-25T19:59:57.449Z,26.50
2022-07-25T20:05:00.432Z,26.30
2022-07-25T20:10:04.571Z,26.20
2022-07-25T20:15:07.806Z,26.00
2022-07-25T20:20:12.069Z,26.00
2022-07-25T20:25:15.153Z,25.80
2022-07-25T20:30:18.851Z,25.70
2022-07-25T20:35:21.741Z,25.60
2022-07-25T20:40:24.669Z,25.60
2022-07-25T20:45:28.403Z,25.40
2022-07-25T20:50:31.442Z,25.30
2022-07-25T20:55:34.638Z,25.10
2022-07-25T21:00:37.904Z,25.00
2022-07-25T21:05:43.263Z,25.00
2022-07-25T21:10:46.183Z,24.90
2022-07-25T21:15:50.701Z,24.80
2022-07-25T21:20:55.082Z,24.80
2022-07-25T21:25:58.302Z,24.70
2022-07-25T21:31:01.273Z,24.60
2022-07-25T21:36:04.893Z,24.50
2022-07-25T21:41:07.755Z,24.40
2022-07-25T21:46:10.852Z,24.40
2022-07-25T21:51:18.885Z,24.30
2022-07-25T21:56:25.672Z,24.20
2022-07-25T22:01:28.807Z,24.20
2022-07-25T22:06:31.931Z,24.10
2022-07-25T22:11:43.119Z,24.00
2022-07-25T22:16:50.401Z,24.00
2022-07-25T22:21:53.972Z,23.90
2022-07-25T22:26:56.916Z,23.80
2022-07-25T22:32:00.878Z,23.70
2022-07-25T22:37:03.872Z,23.70
2022-07-25T22:42:07.001Z,23.60
2022-07-25T22:47:09.994Z,23.50
2022-07-25T22:52:13.684Z,23.50
2022-07-25T22:57:16.540Z,23.50
2022-07-25T23:02:19.512Z,23.50
2022-07-25T23:07:22.378Z,23.50
2022-07-25T23:12:25.348Z,23.40
2022-07-25T23:17:29.139Z,23.50
2022-07-25T23:22:31.949Z,23.50
2022-07-25T23:27:35.191Z,23.50
2022-07-25T23:32:38.289Z,23.50
2022-07-25T23:37:41.193Z,23.30
2022-07-25T23:42:44.163Z,23.20
2022-07-25T23:47:47.332Z,23.00
2022-07-25T23:52:52.346Z,22.90
2022-07-25T23:57:55.120Z,22.80
